Time;durP1;ratioP1;P1;durP2;ratioP2;P2;SDS_P1;SDS_P2;PMS_P1;PMS_P2;Temp;Humidity;BMP_temperature;BMP_pressure;BME280_temperature;BME280_humidity;BME280_pressure;Samples;Min_cycle;Max_cycle;Signal;HPM_P1;HPM_P2
2023/10/31 00:01:24;;;;;;;11.37;4.93;;;;;;;12.38;91.85;99730.31;1476971;88;21493;-80
2023/10/31 00:03:50;;;;;;;11.70;4.40;;;;;;;12.38;91.64;99725.00;1456958;88;21449;-80
2023/10/31 00:06:17;;;;;;;13.93;4.27;;;;;;;12.39;91.91;99717.35;1473910;88;21515;-80
2023/10/31 00:08:43;;;;;;;11.20;4.30;;;;;;;12.39;91.21;99717.35;1475026;88;21539;-81
2023/10/31 00:11:09;;;;;;;10.07;4.30;;;;;;;12.38;91.15;99707.24;1479316;88;21545;-82
2023/10/31 00:13:35;;;;;;;11.40;4.00;;;;;;;12.41;91.42;99708.72;1473255;88;21397;-81
2023/10/31 00:16:02;;;;;;;14.07;6.03;;;;;;;12.43;91.40;99698.77;1476382;87;21702;-83
2023/10/31 00:18:28;;;;;;;11.30;4.20;;;;;;;12.45;90.87;99696.73;1468532;87;21509;-82
2023/10/31 00:20:55;;;;;;;9.10;4.33;;;;;;;12.50;90.73;99697.03;1469203;88;21413;-80
2023/10/31 00:23:22;;;;;;;11.53;3.70;;;;;;;12.56;90.29;99698.98;1461696;88;21338;-79
2023/10/31 00:25:48;;;;;;;10.47;4.77;;;;;;;12.58;90.00;99693.50;1473055;88;21559;-79
2023/10/31 00:28:14;;;;;;;13.07;4.30;;;;;;;12.61;89.29;99689.16;1476408;88;21412;-80
2023/10/31 00:30:40;;;;;;;9.63;4.40;;;;;;;12.63;89.13;99687.16;1476306;88;21382;-79
2023/10/31 00:33:07;;;;;;;6.97;4.53;;;;;;;12.64;88.87;99689.63;1468581;88;21504;-79
2023/10/31 00:35:33;;;;;;;9.53;4.43;;;;;;;12.60;88.93;99693.66;1475283;88;21500;-80
2023/10/31 00:37:59;;;;;;;10.10;4.60;;;;;;;12.60;88.55;99698.96;1472788;88;21382;-80
2023/10/31 00:40:25;;;;;;;9.43;4.90;;;;;;;12.58;88.12;99691.67;1466739;88;22321;-78
2023/10/31 00:42:51;;;;;;;9.47;4.43;;;;;;;12.57;88.54;99687.38;1473460;88;21427;-79
2023/10/31 00:45:17;;;;;;;9.10;4.00;;;;;;;12.54;88.99;99685.05;1474429;88;21411;-80
2023/10/31 00:47:44;;;;;;;8.77;4.43;;;;;;;12.49;89.26;99680.80;1473919;88;22388;-80
2023/10/31 00:50:10;;;;;;;12.47;5.53;;;;;;;12.48;89.86;99690.25;1473005;88;21479;-80
2023/10/31 00:52:36;;;;;;;8.23;4.00;;;;;;;12.43;90.52;99688.15;1458221;88;21339;-80
2023/10/31 00:55:03;;;;;;;11.47;4.30;;;;;;;12.40;91.03;99680.55;1483998;88;22387;-80
2023/10/31 00:57:29;;;;;;;12.57;4.17;;;;;;;12.38;91.60;99677.23;1469625;88;21405;-80
2023/10/31 00:59:56;;;;;;;14.70;5.97;;;;;;;12.34;91.57;99682.08;1478653;88;21388;-80
2023/10/31 01:02:22;;;;;;;8.43;5.20;;;;;;;12.33;91.42;99671.63;1458180;88;21485;-81
2023/10/31 01:04:48;;;;;;;10.20;4.93;;;;;;;12.28;92.43;99673.98;1468697;88;21352;-79
2023/10/31 01:07:16;;;;;;;7.33;4.67;;;;;;;12.21;92.37;99675.70;1469116;88;21331;-78
2023/10/31 01:09:42;;;;;;;10.83;4.37;;;;;;;12.13;94.39;99673.41;1479494;88;22557;-80
2023/10/31 01:12:11;;;;;;;12.83;4.53;;;;;;;12.07;97.69;99668.81;1454947;88;21412;-79
2023/10/31 01:14:37;;;;;;;9.67;4.33;;;;;;;12.01;98.80;99657.59;1455613;88;21622;-80
2023/10/31 01:17:04;;;;;;;11.83;5.10;;;;;;;11.94;100.00;99651.35;1476706;88;21405;-80
2023/10/31 01:19:30;;;;;;;8.47;3.90;;;;;;;11.88;100.00;99648.05;1473537;88;21301;-80
2023/10/31 01:21:56;;;;;;;13.93;5.23;;;;;;;11.86;100.00;99648.74;1476691;88;21375;-79
2023/10/31 01:24:23;;;;;;;13.23;5.77;;;;;;;11.85;100.00;99644.39;1476338;88;22225;-80
2023/10/31 01:26:49;;;;;;;10.63;4.90;;;;;;;11.82;100.00;99648.72;1465444;88;21405;-80
2023/10/31 01:29:15;;;;;;;10.03;4.53;;;;;;;11.76;100.00;99647.59;1468585;88;21382;-80
2023/10/31 01:31:42;;;;;;;18.80;5.40;;;;;;;11.71;100.00;99645.48;1457637;88;22284;-80
2023/10/31 01:34:08;;;;;;;11.77;5.53;;;;;;;11.64;100.00;99637.88;1479104;88;21464;-80
2023/10/31 01:36:34;;;;;;;10.80;4.67;;;;;;;11.56;100.00;99640.56;1465995;88;21367;-80
2023/10/31 01:39:01;;;;;;;7.93;4.50;;;;;;;11.49;100.00;99629.02;1478780;88;22409;-79
2023/10/31 01:41:27;;;;;;;11.07;4.77;;;;;;;11.44;100.00;99628.70;1472592;88;21845;-80
2023/10/31 01:43:53;;;;;;;10.80;4.30;;;;;;;11.41;100.00;99623.75;1468971;88;21390;-79
2023/10/31 01:46:19;;;;;;;12.33;4.53;;;;;;;11.41;100.00;99615.80;1468682;88;21463;-79
2023/10/31 01:48:45;;;;;;;10.30;5.23;;;;;;;11.39;100.00;99615.14;1477280;88;21456;-80
2023/10/31 01:51:12;;;;;;;12.23;5.27;;;;;;;11.36;100.00;99618.95;1467820;88;22509;-79
2023/10/31 01:53:38;;;;;;;11.57;5.20;;;;;;;11.29;100.00;99621.48;1481697;88;21426;-80
2023/10/31 01:56:06;;;;;;;14.33;6.53;;;;;;;11.26;100.00;99613.88;1475942;88;21531;-81
2023/10/31 01:58:36;;;;;;;10.07;4.70;;;;;;;11.25;100.00;99616.72;1467862;88;21286;-82
2023/10/31 02:01:03;;;;;;;12.40;5.23;;;;;;;11.21;100.00;99601.64;1476874;88;21419;-81
2023/10/31 02:03:29;;;;;;;13.40;4.57;;;;;;;11.19;100.00;99606.30;1463974;88;21398;-81
2023/10/31 02:05:57;;;;;;;8.70;4.70;;;;;;;11.19;100.00;99614.25;1481901;88;21578;-80
2023/10/31 02:08:25;;;;;;;9.30;4.50;;;;;;;11.20;100.00;99611.92;1476841;88;22322;-81
2023/10/31 02:10:51;;;;;;;9.83;5.30;;;;;;;11.13;100.00;99616.23;1475999;88;21545;-80
2023/10/31 02:13:18;;;;;;;9.57;5.40;;;;;;;11.08;100.00;99618.59;1487425;88;22343;-81
2023/10/31 02:15:45;;;;;;;13.10;4.63;;;;;;;11.03;100.00;99618.27;1470937;88;21516;-80
2023/10/31 02:18:12;;;;;;;14.10;6.60;;;;;;;11.01;100.00;99618.93;1447380;88;22344;-80
2023/10/31 02:20:39;;;;;;;10.73;5.47;;;;;;;10.97;100.00;99609.69;1470822;88;21324;-80
2023/10/31 02:23:06;;;;;;;9.63;4.37;;;;;;;10.95;100.00;99609.84;1478992;88;21516;-80
2023/10/31 02:25:32;;;;;;;11.00;5.00;;;;;;;10.93;100.00;99601.73;1473321;88;21368;-79
2023/10/31 02:28:00;;;;;;;10.43;5.37;;;;;;;10.90;100.00;99594.95;1478096;88;21523;-80
2023/10/31 02:30:27;;;;;;;7.53;3.77;;;;;;;10.89;100.00;99592.50;1480565;88;21389;-80
2023/10/31 02:32:54;;;;;;;7.90;4.40;;;;;;;10.82;100.00;99597.15;1477659;88;22188;-81
2023/10/31 02:35:20;;;;;;;8.87;4.20;;;;;;;10.73;100.00;99595.52;1476126;88;21511;-81
2023/10/31 02:37:47;;;;;;;8.63;4.37;;;;;;;10.65;100.00;99594.72;1474705;88;22320;-81
2023/10/31 02:40:14;;;;;;;12.43;3.97;;;;;;;10.60;100.00;99593.88;1473839;88;21412;-80
2023/10/31 02:42:40;;;;;;;12.60;4.60;;;;;;;10.55;100.00;99585.61;1468007;88;21302;-80
2023/10/31 02:45:07;;;;;;;9.40;4.00;;;;;;;10.52;100.00;99584.63;1473899;88;22513;-79
2023/10/31 02:47:34;;;;;;;8.73;4.53;;;;;;;10.51;100.00;99583.81;1480450;88;21397;-80
2023/10/31 02:50:00;;;;;;;10.40;5.43;;;;;;;10.50;100.00;99587.93;1475591;88;21323;-79
2023/10/31 02:52:26;;;;;;;9.90;4.30;;;;;;;10.45;100.00;99583.66;1465840;88;21575;-79
2023/10/31 02:54:52;;;;;;;10.23;5.10;;;;;;;10.46;100.00;99586.62;1479765;88;21390;-79
2023/10/31 02:57:18;;;;;;;7.43;4.40;;;;;;;10.47;100.00;99585.62;1474228;88;21610;-79
2023/10/31 02:59:44;;;;;;;7.07;3.63;;;;;;;10.45;100.00;99581.84;1473261;88;21501;-80
2023/10/31 03:02:11;;;;;;;13.97;5.43;;;;;;;10.39;100.00;99588.62;1470309;88;21375;-80
2023/10/31 03:04:37;;;;;;;11.83;4.90;;;;;;;10.30;100.00;99588.30;1456536;88;21501;-80
2023/10/31 03:07:04;;;;;;;8.30;4.83;;;;;;;10.22;100.00;99590.91;1478891;88;21434;-80
2023/10/31 03:09:30;;;;;;;10.00;4.40;;;;;;;10.16;100.00;99591.58;1475644;88;21442;-80
2023/10/31 03:11:56;;;;;;;7.43;4.37;;;;;;;10.15;100.00;99588.58;1468252;88;22307;-80
2023/10/31 03:14:22;;;;;;;12.47;5.90;;;;;;;10.13;100.00;99586.62;1455649;88;21352;-81
2023/10/31 03:16:48;;;;;;;9.00;4.83;;;;;;;10.10;100.00;99576.38;1476295;88;21272;-80
2023/10/31 03:19:14;;;;;;;8.73;4.40;;;;;;;10.07;100.00;99585.46;1471177;88;21347;-81
2023/10/31 03:21:40;;;;;;;10.23;4.40;;;;;;;10.01;100.00;99590.56;1473739;88;21546;-80
2023/10/31 03:24:07;;;;;;;12.23;5.10;;;;;;;9.98;100.00;99588.25;1457942;88;21434;-80
2023/10/31 03:26:33;;;;;;;10.67;5.37;;;;;;;9.98;100.00;99598.82;1470758;88;22474;-80
2023/10/31 03:28:59;;;;;;;10.60;4.97;;;;;;;9.97;100.00;99589.25;1472632;88;21397;-80
2023/10/31 03:31:25;;;;;;;9.33;5.60;;;;;;;9.94;100.00;99582.47;1473204;88;21475;-80
2023/10/31 03:33:53;;;;;;;9.57;4.73;;;;;;;9.94;100.00;99579.33;1471671;88;22345;-79
2023/10/31 03:36:19;;;;;;;10.40;4.37;;;;;;;9.92;100.00;99576.52;1470757;88;21478;-80
2023/10/31 03:38:46;;;;;;;7.37;4.67;;;;;;;9.87;100.00;99572.23;1476446;88;21360;-79
2023/10/31 03:41:13;;;;;;;15.53;5.63;;;;;;;9.86;100.00;99579.31;1471998;88;21537;-80
2023/10/31 03:43:39;;;;;;;9.93;5.03;;;;;;;9.87;100.00;99579.66;1459015;88;21449;-80
2023/10/31 03:46:05;;;;;;;11.80;4.97;;;;;;;9.85;100.00;99571.06;1457805;88;21485;-80
2023/10/31 03:48:31;;;;;;;11.90;5.40;;;;;;;9.83;100.00;99573.03;1478249;88;21287;-79
2023/10/31 03:50:57;;;;;;;11.33;5.63;;;;;;;9.82;100.00;99567.93;1477279;88;21515;-81
2023/10/31 03:53:23;;;;;;;11.53;4.30;;;;;;;9.76;100.00;99573.87;1460826;88;21354;-80
2023/10/31 03:55:49;;;;;;;12.20;5.23;;;;;;;9.70;100.00;99574.03;1463490;88;21493;-80
2023/10/31 03:58:16;;;;;;;13.53;5.07;;;;;;;9.69;100.00;99571.85;1438187;88;22314;-82
